Sankoumaru 31 — JD2200 — position and weather

sailwx.info

Track history (hours):
 
Tides and Currents Weather Stations Pressure Air Temp Water Temp Dewpoint Dewpoint Depression Visibility Wind Speed Wind Dir Waves Ship Positions

Sankoumaru 31

Last reported at 2016-Aug-12 21:32 UTC. Time now 2016-Aug-26 17:32 UTC.
Position N 36°57' E 141°02'.
Warning: this ship's position is 13 days out of date.

Length 75 m; draft 5 m.

Type: Cargo ship. MMSI: 431501842.

Date/timePositionNaut miles runAvg speedWind from/ knotsBaromVisibWave heightAir tempDewpointWater temp
2016-Aug-12 21:32N 36°57' E 141°02'1110.9
2016-Aug-12 20:31N 36°46' E 141°01'1010.5
2016-Aug-12 19:33N 36°36' E 140°60'1211.3
2016-Aug-12 18:30N 36°24' E 140°59'1111.3
2016-Aug-12 17:33N 36°14' E 140°58'1111.1
2016-Aug-12 16:31N 36°02' E 140°57'1111.0
2016-Aug-12 15:29N 35°51' E 140°56'1311.1
2016-Aug-12 14:20N 35°38' E 140°52'1111.7
2016-Aug-12 13:22N 35°29' E 140°44'1211.5
2016-Aug-12 12:19N 35°20' E 140°34'2111.5
2016-Aug-12 10:29N 35°04' E 140°17'1212.4
2016-Aug-12 09:32N 34°58' E 140°05'1511.1
2016-Aug-12 08:11N 34°53' E 139°48'810.0
2016-Aug-12 07:26N 34°60' E 139°43'1011.1
2016-Aug-12 06:33N 35°09' E 139°46'1110.9
2016-Aug-12 05:33N 35°20' E 139°42'6 6.3
2016-Aug-12 04:33N 35°22' E 139°50'2 2.0
2016-Aug-12 03:33N 35°21' E 139°51'0 0.0
2016-Aug-12 02:23N 35°21' E 139°51'0 0.0
2016-Aug-12 01:32N 35°21' E 139°51'0 0.0
2016-Aug-12 00:32N 35°21' E 139°51'0 0.0
2016-Aug-11 23:32N 35°21' E 139°51'0 0.0
2016-Aug-11 22:29N 35°21' E 139°51'0 0.0
2016-Aug-11 21:32N 35°21' E 139°51'0 0.0
2016-Aug-11 20:32N 35°21' E 139°51'0 0.0
2016-Aug-11 19:32N 35°21' E 139°51'0 0.0
2016-Aug-11 18:32N 35°21' E 139°51'0 0.0
2016-Aug-11 17:32N 35°21' E 139°51'0 0.0
2016-Aug-11 16:32N 35°21' E 139°51'0 0.0
2016-Aug-11 15:29N 35°21' E 139°51'0 0.0
2016-Aug-11 12:29N 35°21' E 139°51'0 0.0
2016-Aug-11 11:29N 35°21' E 139°51'0 0.0
2016-Aug-11 10:29N 35°21' E 139°51'0 0.0
2016-Aug-11 09:29N 35°21' E 139°51'0 0.0
2016-Aug-11 08:32N 35°21' E 139°51'0 0.0
2016-Aug-11 07:26N 35°21' E 139°51'0 0.0
2016-Aug-11 06:23N 35°21' E 139°51'0 0.0
2016-Aug-11 05:32N 35°21' E 139°51'0 0.0
2016-Aug-11 04:32N 35°21' E 139°51'0 0.0
2016-Aug-11 01:20N 35°21' E 139°51'0 0.0
2016-Aug-11 00:17N 35°21' E 139°51'0 0.0
2016-Aug-10 21:23N 35°21' E 139°51'0 0.0
2016-Aug-10 19:29N 35°21' E 139°51'0 0.0
2016-Aug-10 18:17N 35°21' E 139°51'0 0.0
2016-Aug-10 17:29N 35°21' E 139°51'0 0.0
2016-Aug-10 16:20N 35°21' E 139°51'0 0.0
2016-Aug-10 15:26N 35°21' E 139°51'0 0.0
2016-Aug-10 14:32N 35°21' E 139°51'0 0.0
2016-Aug-10 13:32N 35°21' E 139°51'0 0.0
2016-Aug-10 12:26N 35°21' E 139°51'0 0.0
2016-Aug-10 11:32N 35°21' E 139°51'0 0.0
2016-Aug-10 10:26N 35°21' E 139°51'0 0.0
2016-Aug-10 09:32N 35°21' E 139°51'1 0.6
2016-Aug-10 08:31N 35°21' E 139°51'0 0.0
2016-Aug-10 07:31N 35°21' E 139°51'0 0.0
2016-Aug-10 06:34N 35°21' E 139°51'0 0.0
2016-Aug-10 05:31N 35°21' E 139°51'0 0.1
2016-Aug-10 04:31N 35°21' E 139°51'0 0.0
2016-Aug-10 03:31N 35°21' E 139°51'0 0.0
2016-Aug-10 02:31N 35°21' E 139°51'0 0.0
2016-Aug-10 01:31N 35°21' E 139°51'0 0.0
2016-Aug-10 00:31N 35°21' E 139°51'0 0.1
2016-Aug-09 23:31N 35°21' E 139°51'0 0.1
2016-Aug-09 22:31N 35°21' E 139°51'0 0.1
2016-Aug-09 18:31N 35°21' E 139°51'0 0.4
2016-Aug-09 17:22N 35°21' E 139°51'0 0.0
2016-Aug-09 16:28N 35°21' E 139°51'0 0.0
2016-Aug-09 15:31N 35°21' E 139°51'0 0.1
2016-Aug-09 14:31N 35°21' E 139°51'5 5.2
2016-Aug-09 13:33N 35°20' E 139°45'1010.3
2016-Aug-09 12:33N 35°10' E 139°46'1711.7
2016-Aug-09 11:05N 34°58' E 139°31'611.7
2016-Aug-09 10:33N 34°54' E 139°26'  
Track history (hours):
 
Tides and Currents Weather Stations Pressure Air Temp Water Temp Dewpoint Dewpoint Depression Visibility Wind Speed Wind Dir Waves Ship Positions

Sankoumaru 31

Last reported at 2016-Aug-12 21:32 UTC. Time now 2016-Aug-26 17:32 UTC.
Position N 36°57' E 141°02'.
Warning: this ship's position is 13 days out of date.

Length 75 m; draft 5 m.

Type: Cargo ship. MMSI: 431501842.

Date/timePositionNaut miles runAvg speedWind from/ knotsBaromVisibWave heightAir tempDewpointWater temp
2016-Aug-12 21:32N 36°57' E 141°02'1110.9
2016-Aug-12 20:31N 36°46' E 141°01'1010.5
2016-Aug-12 19:33N 36°36' E 140°60'1211.3
2016-Aug-12 18:30N 36°24' E 140°59'1111.3
2016-Aug-12 17:33N 36°14' E 140°58'1111.1
2016-Aug-12 16:31N 36°02' E 140°57'1111.0
2016-Aug-12 15:29N 35°51' E 140°56'1311.1
2016-Aug-12 14:20N 35°38' E 140°52'1111.7
2016-Aug-12 13:22N 35°29' E 140°44'1211.5
2016-Aug-12 12:19N 35°20' E 140°34'2111.5
2016-Aug-12 10:29N 35°04' E 140°17'1212.4
2016-Aug-12 09:32N 34°58' E 140°05'1511.1
2016-Aug-12 08:11N 34°53' E 139°48'810.0
2016-Aug-12 07:26N 34°60' E 139°43'1011.1
2016-Aug-12 06:33N 35°09' E 139°46'1110.9
2016-Aug-12 05:33N 35°20' E 139°42'6 6.3
2016-Aug-12 04:33N 35°22' E 139°50'2 2.0
2016-Aug-12 03:33N 35°21' E 139°51'0 0.0
2016-Aug-12 02:23N 35°21' E 139°51'0 0.0
2016-Aug-12 01:32N 35°21' E 139°51'0 0.0
2016-Aug-12 00:32N 35°21' E 139°51'0 0.0
2016-Aug-11 23:32N 35°21' E 139°51'0 0.0
2016-Aug-11 22:29N 35°21' E 139°51'0 0.0
2016-Aug-11 21:32N 35°21' E 139°51'0 0.0
2016-Aug-11 20:32N 35°21' E 139°51'0 0.0
2016-Aug-11 19:32N 35°21' E 139°51'0 0.0
2016-Aug-11 18:32N 35°21' E 139°51'0 0.0
2016-Aug-11 17:32N 35°21' E 139°51'0 0.0
2016-Aug-11 16:32N 35°21' E 139°51'0 0.0
2016-Aug-11 15:29N 35°21' E 139°51'0 0.0
2016-Aug-11 12:29N 35°21' E 139°51'0 0.0
2016-Aug-11 11:29N 35°21' E 139°51'0 0.0
2016-Aug-11 10:29N 35°21' E 139°51'0 0.0
2016-Aug-11 09:29N 35°21' E 139°51'0 0.0
2016-Aug-11 08:32N 35°21' E 139°51'0 0.0
2016-Aug-11 07:26N 35°21' E 139°51'0 0.0
2016-Aug-11 06:23N 35°21' E 139°51'0 0.0
2016-Aug-11 05:32N 35°21' E 139°51'0 0.0
2016-Aug-11 04:32N 35°21' E 139°51'0 0.0
2016-Aug-11 01:20N 35°21' E 139°51'0 0.0
2016-Aug-11 00:17N 35°21' E 139°51'0 0.0
2016-Aug-10 21:23N 35°21' E 139°51'0 0.0
2016-Aug-10 19:29N 35°21' E 139°51'0 0.0
2016-Aug-10 18:17N 35°21' E 139°51'0 0.0
2016-Aug-10 17:29N 35°21' E 139°51'0 0.0
2016-Aug-10 16:20N 35°21' E 139°51'0 0.0
2016-Aug-10 15:26N 35°21' E 139°51'0 0.0
2016-Aug-10 14:32N 35°21' E 139°51'0 0.0
2016-Aug-10 13:32N 35°21' E 139°51'0 0.0
2016-Aug-10 12:26N 35°21' E 139°51'0 0.0
2016-Aug-10 11:32N 35°21' E 139°51'0 0.0
2016-Aug-10 10:26N 35°21' E 139°51'0 0.0
2016-Aug-10 09:32N 35°21' E 139°51'1 0.6
2016-Aug-10 08:31N 35°21' E 139°51'0 0.0
2016-Aug-10 07:31N 35°21' E 139°51'0 0.0
2016-Aug-10 06:34N 35°21' E 139°51'0 0.0
2016-Aug-10 05:31N 35°21' E 139°51'0 0.1
2016-Aug-10 04:31N 35°21' E 139°51'0 0.0
2016-Aug-10 03:31N 35°21' E 139°51'0 0.0
2016-Aug-10 02:31N 35°21' E 139°51'0 0.0
2016-Aug-10 01:31N 35°21' E 139°51'0 0.0
2016-Aug-10 00:31N 35°21' E 139°51'0 0.1
2016-Aug-09 23:31N 35°21' E 139°51'0 0.1
2016-Aug-09 22:31N 35°21' E 139°51'0 0.1
2016-Aug-09 18:31N 35°21' E 139°51'0 0.4
2016-Aug-09 17:22N 35°21' E 139°51'0 0.0
2016-Aug-09 16:28N 35°21' E 139°51'0 0.0
2016-Aug-09 15:31N 35°21' E 139°51'0 0.1
2016-Aug-09 14:31N 35°21' E 139°51'5 5.2
2016-Aug-09 13:33N 35°20' E 139°45'1010.3
2016-Aug-09 12:33N 35°10' E 139°46'1711.7
2016-Aug-09 11:05N 34°58' E 139°31'611.7
2016-Aug-09 10:33N 34°54' E 139°26'  

Dump ship's entire track history